sensor_id;sensor_type;location;lat;lon;timestamp;pressure;altitude;pressure_sealevel;temperature;humidity
59789;BME280;47353;51.614;5.530;2023-02-23T00:00:21;101197.47;;;7.71;100.00
59789;BME280;47353;51.614;5.530;2023-02-23T00:02:51;101189.47;;;7.70;100.00
59789;BME280;47353;51.614;5.530;2023-02-23T00:05:17;101194.81;;;7.76;100.00
59789;BME280;47353;51.614;5.530;2023-02-23T00:07:43;101186.81;;;7.75;100.00
59789;BME280;47353;51.614;5.530;2023-02-23T00:10:13;101196.22;;;7.79;100.00
59789;BME280;47353;51.614;5.530;2023-02-23T00:12:40;101197.06;;;7.79;100.00
59789;BME280;47353;51.614;5.530;2023-02-23T00:15:06;101200.19;;;7.83;100.00
59789;BME280;47353;51.614;5.530;2023-02-23T00:17:32;101202.69;;;7.84;100.00
59789;BME280;47353;51.614;5.530;2023-02-23T00:19:57;101201.28;;;7.82;100.00
59789;BME280;47353;51.614;5.530;2023-02-23T00:22:24;101197.44;;;7.83;100.00
59789;BME280;47353;51.614;5.530;2023-02-23T00:24:51;101195.25;;;7.85;100.00
59789;BME280;47353;51.614;5.530;2023-02-23T00:27:16;101195.00;;;7.86;100.00
59789;BME280;47353;51.614;5.530;2023-02-23T00:29:42;101199.44;;;7.87;100.00
59789;BME280;47353;51.614;5.530;2023-02-23T00:32:07;101192.25;;;7.86;100.00
59789;BME280;47353;51.614;5.530;2023-02-23T00:34:32;101186.75;;;7.86;100.00
59789;BME280;47353;51.614;5.530;2023-02-23T00:36:59;101191.75;;;7.89;100.00
59789;BME280;47353;51.614;5.530;2023-02-23T00:39:25;101193.91;;;7.87;100.00
59789;BME280;47353;51.614;5.530;2023-02-23T00:41:51;101198.59;;;7.87;100.00
59789;BME280;47353;51.614;5.530;2023-02-23T00:44:18;101189.75;;;7.85;100.00
59789;BME280;47353;51.614;5.530;2023-02-23T00:46:45;101188.41;;;7.87;100.00
59789;BME280;47353;51.614;5.530;2023-02-23T00:49:15;101184.50;;;7.83;100.00
59789;BME280;47353;51.614;5.530;2023-02-23T00:51:40;101189.50;;;7.86;100.00
59789;BME280;47353;51.614;5.530;2023-02-23T00:54:06;101183.13;;;7.86;100.00
59789;BME280;47353;51.614;5.530;2023-02-23T00:56:32;101190.00;;;7.83;100.00
59789;BME280;47353;51.614;5.530;2023-02-23T00:58:58;101189.16;;;7.83;100.00
59789;BME280;47353;51.614;5.530;2023-02-23T01:01:23;101184.50;;;7.83;100.00
59789;BME280;47353;51.614;5.530;2023-02-23T01:03:49;101190.16;;;7.77;100.00
59789;BME280;47353;51.614;5.530;2023-02-23T01:06:17;101193.47;;;7.79;100.00
59789;BME280;47353;51.614;5.530;2023-02-23T01:08:45;101186.47;;;7.71;100.00
59789;BME280;47353;51.614;5.530;2023-02-23T01:11:19;101197.84;;;7.75;100.00
59789;BME280;47353;51.614;5.530;2023-02-23T01:13:48;101199.19;;;7.72;100.00
59789;BME280;47353;51.614;5.530;2023-02-23T01:16:17;101201.09;;;7.72;100.00
59789;BME280;47353;51.614;5.530;2023-02-23T01:18:43;101195.22;;;7.68;100.00
59789;BME280;47353;51.614;5.530;2023-02-23T01:23:39;101194.66;;;7.66;100.00
59789;BME280;47353;51.614;5.530;2023-02-23T01:26:05;101198.47;;;7.65;100.00
59789;BME280;47353;51.614;5.530;2023-02-23T01:28:37;101197.56;;;7.60;100.00
59789;BME280;47353;51.614;5.530;2023-02-23T01:31:07;101198.63;;;7.59;100.00
59789;BME280;47353;51.614;5.530;2023-02-23T01:33:33;101202.25;;;7.59;100.00
59789;BME280;47353;51.614;5.530;2023-02-23T01:35:58;101196.38;;;7.56;100.00
59789;BME280;47353;51.614;5.530;2023-02-23T01:38:24;101188.63;;;7.53;100.00
59789;BME280;47353;51.614;5.530;2023-02-23T01:40:49;101193.06;;;7.54;100.00
59789;BME280;47353;51.614;5.530;2023-02-23T01:43:21;101198.56;;;7.54;100.00
59789;BME280;47353;51.614;5.530;2023-02-23T01:45:55;101200.47;;;7.53;100.00
59789;BME280;47353;51.614;5.530;2023-02-23T01:48:30;101201.56;;;7.52;100.00
59789;BME280;47353;51.614;5.530;2023-02-23T01:51:11;101207.91;;;7.53;100.00
59789;BME280;47353;51.614;5.530;2023-02-23T01:53:47;101212.84;;;7.51;100.00
59789;BME280;47353;51.614;5.530;2023-02-23T01:56:17;101208.66;;;7.48;100.00
59789;BME280;47353;51.614;5.530;2023-02-23T01:58:46;101207.59;;;7.49;100.00
59789;BME280;47353;51.614;5.530;2023-02-23T02:01:16;101210.09;;;7.51;100.00
59789;BME280;47353;51.614;5.530;2023-02-23T02:03:44;101213.66;;;7.51;100.00
59789;BME280;47353;51.614;5.530;2023-02-23T02:06:13;101221.09;;;7.51;100.00
59789;BME280;47353;51.614;5.530;2023-02-23T02:08:44;101217.50;;;7.50;100.00
59789;BME280;47353;51.614;5.530;2023-02-23T02:11:12;101213.66;;;7.51;100.00
59789;BME280;47353;51.614;5.530;2023-02-23T02:16:47;101212.84;;;7.51;100.00
59789;BME280;47353;51.614;5.530;2023-02-23T02:39:14;101203.56;;;7.40;100.00
59789;BME280;47353;51.614;5.530;2023-02-23T02:42:07;101201.63;;;7.41;100.00
59789;BME280;47353;51.614;5.530;2023-02-23T02:47:25;101206.06;;;7.42;100.00
59789;BME280;47353;51.614;5.530;2023-02-23T02:49:58;101207.38;;;7.39;100.00
59789;BME280;47353;51.614;5.530;2023-02-23T02:52:40;101203.78;;;7.39;100.00
59789;BME280;47353;51.614;5.530;2023-02-23T02:55:18;101206.22;;;7.35;100.00
59789;BME280;47353;51.614;5.530;2023-02-23T02:57:49;101200.34;;;7.32;100.00
59789;BME280;47353;51.614;5.530;2023-02-23T03:00:23;101206.22;;;7.35;100.00
59789;BME280;47353;51.614;5.530;2023-02-23T03:03:36;101202.63;;;7.35;100.00
59789;BME280;47353;51.614;5.530;2023-02-23T03:06:45;101209.53;;;7.37;100.00
59789;BME280;47353;51.614;5.530;2023-02-23T03:09:35;101206.47;;;7.34;100.00
59789;BME280;47353;51.614;5.530;2023-02-23T03:12:39;101203.47;;;7.35;100.00
59789;BME280;47353;51.614;5.530;2023-02-23T03:21:52;101214.47;;;7.35;100.00
59789;BME280;47353;51.614;5.530;2023-02-23T03:30:52;101205.75;;;7.27;100.00
59789;BME280;47353;51.614;5.530;2023-02-23T03:33:45;101212.97;;;7.28;100.00
59789;BME280;47353;51.614;5.530;2023-02-23T03:36:36;101207.94;;;7.25;100.00
59789;BME280;47353;51.614;5.530;2023-02-23T03:39:27;101222.03;;;7.28;100.00
59789;BME280;47353;51.614;5.530;2023-02-23T03:42:18;101221.78;;;7.30;100.00
59789;BME280;47353;51.614;5.530;2023-02-23T03:45:10;101219.78;;;7.25;100.00
59789;BME280;47353;51.614;5.530;2023-02-23T03:47:57;101227.78;;;7.27;100.00
59789;BME280;47353;51.614;5.530;2023-02-23T03:50:47;101233.28;;;7.27;100.00
59789;BME280;47353;51.614;5.530;2023-02-23T03:54:01;101225.03;;;7.27;100.00
59789;BME280;47353;51.614;5.530;2023-02-23T03:56:50;101230.53;;;7.27;100.00
59789;BME280;47353;51.614;5.530;2023-02-23T03:59:58;101233.53;;;7.25;100.00
59789;BME280;47353;51.614;5.530;2023-02-23T04:02:47;101226.63;;;7.23;100.00
59789;BME280;47353;51.614;5.530;2023-02-23T04:05:34;101226.63;;;7.23;100.00
59789;BME280;47353;51.614;5.530;2023-02-23T04:08:20;101221.00;;;7.18;100.00
59789;BME280;47353;51.614;5.530;2023-02-23T04:11:14;101222.22;;;7.22;100.00
59789;BME280;47353;51.614;5.530;2023-02-23T04:14:04;101229.25;;;7.18;100.00
59789;BME280;47353;51.614;5.530;2023-02-23T04:16:32;101225.41;;;7.19;100.00
59789;BME280;47353;51.614;5.530;2023-02-23T04:18:58;101232.38;;;7.21;100.00
59789;BME280;47353;51.614;5.530;2023-02-23T04:21:24;101220.56;;;7.09;100.00
59789;BME280;47353;51.614;5.530;2023-02-23T04:23:49;101236.44;;;7.19;100.00
59789;BME280;47353;51.614;5.530;2023-02-23T04:26:14;101238.00;;;7.15;100.00
59789;BME280;47353;51.614;5.530;2023-02-23T04:28:40;101241.94;;;7.19;100.00
59789;BME280;47353;51.614;5.530;2023-02-23T04:31:05;101241.94;;;7.19;100.00
59789;BME280;47353;51.614;5.530;2023-02-23T04:33:31;101245.44;;;7.14;100.00
59789;BME280;47353;51.614;5.530;2023-02-23T04:35:56;101246.53;;;7.13;100.00
59789;BME280;47353;51.614;5.530;2023-02-23T04:38:22;101247.13;;;7.15;100.00
59789;BME280;47353;51.614;5.530;2023-02-23T04:40:48;101246.28;;;7.15;100.00
59789;BME280;47353;51.614;5.530;2023-02-23T04:43:14;101249.28;;;7.13;100.00
59789;BME280;47353;51.614;5.530;2023-02-23T04:45:40;101255.88;;;7.12;100.00
59789;BME280;47353;51.614;5.530;2023-02-23T04:48:05;101245.84;;;7.06;100.00
59789;BME280;47353;51.614;5.530;2023-02-23T04:50:31;101251.66;;;7.10;100.00
59789;BME280;47353;51.614;5.530;2023-02-23T04:52:56;101253.59;;;7.09;100.00
59789;BME280;47353;51.614;5.530;2023-02-23T04:55:23;101262.09;;;7.08;100.00
59789;BME280;47353;51.614;5.530;2023-02-23T04:57:49;101254.59;;;7.03;100.00
59789;BME280;47353;51.614;5.530;2023-02-23T05:00:16;101258.16;;;7.04;100.00
59789;BME280;47353;51.614;5.530;2023-02-23T05:02:42;101255.41;;;7.04;100.00
59789;BME280;47353;51.614;5.530;2023-02-23T05:05:07;101263.91;;;7.02;100.00
59789;BME280;47353;51.614;5.530;2023-02-23T05:07:33;101251.84;;;7.03;100.00
59789;BME280;47353;51.614;5.530;2023-02-23T05:09:59;101251.22;;;7.01;100.00
59789;BME280;47353;51.614;5.530;2023-02-23T05:12:24;101257.81;;;7.00;100.00
59789;BME280;47353;51.614;5.530;2023-02-23T05:14:50;101258.53;;;6.96;100.00
59789;BME280;47353;51.614;5.530;2023-02-23T05:17:15;101257.47;;;6.97;100.00
59789;BME280;47353;51.614;5.530;2023-02-23T05:19:41;101264.38;;;6.99;100.00
59789;BME280;47353;51.614;5.530;2023-02-23T05:22:06;101265.97;;;6.95;100.00
59789;BME280;47353;51.614;5.530;2023-02-23T05:24:32;101267.88;;;6.95;100.00
59789;BME280;47353;51.614;5.530;2023-02-23T05:26:57;101266.44;;;6.92;100.00
59789;BME280;47353;51.614;5.530;2023-02-23T05:29:23;101266.69;;;6.91;100.00
59789;BME280;47353;51.614;5.530;2023-02-23T05:31:48;101268.97;;;6.94;100.00
59789;BME280;47353;51.614;5.530;2023-02-23T05:34:14;101266.44;;;6.92;100.00
59789;BME280;47353;51.614;5.530;2023-02-23T05:36:41;101273.00;;;6.91;100.00
59789;BME280;47353;51.614;5.530;2023-02-23T05:39:07;101262.50;;;6.88;100.00
59789;BME280;47353;51.614;5.530;2023-02-23T05:41:32;101267.50;;;6.91;100.00
59789;BME280;47353;51.614;5.530;2023-02-23T05:43:58;101266.69;;;6.91;100.00
59789;BME280;47353;51.614;5.530;2023-02-23T05:46:25;101263.34;;;6.89;100.00
59789;BME280;47353;51.614;5.530;2023-02-23T05:48:55;101265.84;;;6.90;100.00
59789;BME280;47353;51.614;5.530;2023-02-23T05:51:20;101266.81;;;6.84;100.00
59789;BME280;47353;51.614;5.530;2023-02-23T05:53:46;101272.94;;;6.86;100.00
59789;BME280;47353;51.614;5.530;2023-02-23T05:56:14;101277.81;;;6.84;100.00
59789;BME280;47353;51.614;5.530;2023-02-23T05:58:49;101274.84;;;6.86;100.00
59789;BME280;47353;51.614;5.530;2023-02-23T06:01:14;101275.06;;;6.84;100.00
59789;BME280;47353;51.614;5.530;2023-02-23T06:03:42;101271.16;;;6.80;100.00
59789;BME280;47353;51.614;5.530;2023-02-23T06:06:07;101281.66;;;6.83;100.00
59789;BME280;47353;51.614;5.530;2023-02-23T06:08:32;101280.81;;;6.82;100.00
59789;BME280;47353;51.614;5.530;2023-02-23T06:10:58;101291.59;;;6.84;100.00
59789;BME280;47353;51.614;5.530;2023-02-23T06:13:24;101284.41;;;6.83;100.00
59789;BME280;47353;51.614;5.530;2023-02-23T06:15:49;101287.41;;;6.82;100.00
59789;BME280;47353;51.614;5.530;2023-02-23T06:18:15;101287.91;;;6.78;100.00
59789;BME280;47353;51.614;5.530;2023-02-23T06:20:41;101293.97;;;6.80;100.00
59789;BME280;47353;51.614;5.530;2023-02-23T06:23:07;101297.81;;;6.79;100.00
59789;BME280;47353;51.614;5.530;2023-02-23T06:25:32;101302.47;;;6.79;100.00
59789;BME280;47353;51.614;5.530;2023-02-23T06:27:57;101301.41;;;6.80;100.00
59789;BME280;47353;51.614;5.530;2023-02-23T06:30:23;101304.16;;;6.80;100.00
59789;BME280;47353;51.614;5.530;2023-02-23T06:32:49;101303.91;;;6.82;100.00
59789;BME280;47353;51.614;5.530;2023-02-23T06:35:14;101311.31;;;6.81;100.00
59789;BME280;47353;51.614;5.530;2023-02-23T06:37:40;101317.69;;;6.82;100.00
59789;BME280;47353;51.614;5.530;2023-02-23T06:40:06;101317.06;;;6.79;100.00
59789;BME280;47353;51.614;5.530;2023-02-23T06:42:31;101321.72;;;6.79;100.00
59789;BME280;47353;51.614;5.530;2023-02-23T06:44:57;101322.81;;;6.78;100.00
59789;BME280;47353;51.614;5.530;2023-02-23T06:47:22;101315.84;;;6.75;100.00
59789;BME280;47353;51.614;5.530;2023-02-23T06:49:47;101319.81;;;6.79;100.00
59789;BME280;47353;51.614;5.530;2023-02-23T06:52:13;101310.59;;;6.74;100.00
59789;BME280;47353;51.614;5.530;2023-02-23T06:54:39;101323.66;;;6.78;100.00
59789;BME280;47353;51.614;5.530;2023-02-23T06:57:06;101327.22;;;6.79;100.00
59789;BME280;47353;51.614;5.530;2023-02-23T06:59:32;101328.06;;;6.79;100.00
59789;BME280;47353;51.614;5.530;2023-02-23T07:01:57;101317.06;;;6.79;100.00
59789;BME280;47353;51.614;5.530;2023-02-23T07:04:23;101322.81;;;6.78;100.00
59789;BME280;47353;51.614;5.530;2023-02-23T07:06:48;101331.06;;;6.78;100.00
59789;BME280;47353;51.614;5.530;2023-02-23T07:09:13;101333.34;;;6.81;100.00
59789;BME280;47353;51.614;5.530;2023-02-23T07:11:42;101342.19;;;6.83;100.00
59789;BME280;47353;51.614;5.530;2023-02-23T07:14:09;101329.16;;;6.78;100.00
59789;BME280;47353;51.614;5.530;2023-02-23T07:16:35;101343.63;;;6.86;100.00
59789;BME280;47353;51.614;5.530;2023-02-23T07:19:01;101349.97;;;6.86;100.00
59789;BME280;47353;51.614;5.530;2023-02-23T07:21:28;101350.31;;;6.90;100.00
59789;BME280;47353;51.614;5.530;2023-02-23T07:23:53;101346.63;;;6.84;100.00
59789;BME280;47353;51.614;5.530;2023-02-23T07:26:19;101351.16;;;6.90;100.00
59789;BME280;47353;51.614;5.530;2023-02-23T07:28:44;101354.75;;;6.91;100.00
59789;BME280;47353;51.614;5.530;2023-02-23T07:31:10;101351.75;;;6.92;100.00
59789;BME280;47353;51.614;5.530;2023-02-23T07:33:35;101363.09;;;6.96;100.00
59789;BME280;47353;51.614;5.530;2023-02-23T07:36:00;101367.53;;;6.97;100.00
59789;BME280;47353;51.614;5.530;2023-02-23T07:38:26;101365.41;;;6.99;100.00
59789;BME280;47353;51.614;5.530;2023-02-23T07:40:52;101369.09;;;7.04;100.00
59789;BME280;47353;51.614;5.530;2023-02-23T07:43:18;101373.50;;;7.05;100.00
59789;BME280;47353;51.614;5.530;2023-02-23T07:45:49;101375.53;;;7.10;100.00
59789;BME280;47353;51.614;5.530;2023-02-23T07:48:15;101379.97;;;7.11;100.00
59789;BME280;47353;51.614;5.530;2023-02-23T07:50:41;101381.41;;;7.13;100.00
59789;BME280;47353;51.614;5.530;2023-02-23T07:53:06;101390.16;;;7.22;100.00
59789;BME280;47353;51.614;5.530;2023-02-23T07:55:32;101397.06;;;7.24;100.00
59789;BME280;47353;51.614;5.530;2023-02-23T07:57:57;101398.16;;;7.23;100.00
59789;BME280;47353;51.614;5.530;2023-02-23T08:00:23;101403.19;;;7.26;100.00
59789;BME280;47353;51.614;5.530;2023-02-23T08:02:49;101413.09;;;7.27;100.00
59789;BME280;47353;51.614;5.530;2023-02-23T08:05:15;101410.47;;;7.32;100.00
59789;BME280;47353;51.614;5.530;2023-02-23T08:07:40;101408.53;;;7.33;100.00
59789;BME280;47353;51.614;5.530;2023-02-23T08:10:06;101411.16;;;7.39;100.00
59789;BME280;47353;51.614;5.530;2023-02-23T08:12:32;101423.38;;;7.43;100.00
59789;BME280;47353;51.614;5.530;2023-02-23T08:14:58;101427.31;;;7.47;100.00
59789;BME280;47353;51.614;5.530;2023-02-23T08:17:23;101424.31;;;7.49;100.00
59789;BME280;47353;51.614;5.530;2023-02-23T08:19:49;101432.94;;;7.52;100.00
59789;BME280;47353;51.614;5.530;2023-02-23T08:22:14;101430.75;;;7.54;100.00
59789;BME280;47353;51.614;5.530;2023-02-23T08:24:41;101434.50;;;7.60;100.00
59789;BME280;47353;51.614;5.530;2023-02-23T08:27:06;101430.88;;;7.59;100.00
59789;BME280;47353;51.614;5.530;2023-02-23T08:29:32;101446.56;;;7.59;100.00
59789;BME280;47353;51.614;5.530;2023-02-23T08:32:01;101425.66;;;7.46;100.00
59789;BME280;47353;51.614;5.530;2023-02-23T08:34:27;101446.09;;;7.62;100.00
59789;BME280;47353;51.614;5.530;2023-02-23T08:36:53;101447.78;;;7.63;100.00
59789;BME280;47353;51.614;5.530;2023-02-23T08:39:18;101443.94;;;7.64;100.00
59789;BME280;47353;51.614;5.530;2023-02-23T08:41:44;101437.19;;;7.71;100.00
59789;BME280;47353;51.614;5.530;2023-02-23T08:44:10;101436.88;;;7.68;100.00
59789;BME280;47353;51.614;5.530;2023-02-23T08:46:35;101445.34;;;7.78;100.00
59789;BME280;47353;51.614;5.530;2023-02-23T08:49:00;101446.53;;;7.82;100.00
59789;BME280;47353;51.614;5.530;2023-02-23T08:51:26;101451.19;;;7.81;100.00
59789;BME280;47353;51.614;5.530;2023-02-23T08:53:51;101454.63;;;7.88;100.00
59789;BME280;47353;51.614;5.530;2023-02-23T08:56:17;101453.66;;;7.94;100.00
59789;BME280;47353;51.614;5.530;2023-02-23T08:58:42;101456.16;;;7.96;100.00
59789;BME280;47353;51.614;5.530;2023-02-23T09:01:15;101448.63;;;8.03;100.00
59789;BME280;47353;51.614;5.530;2023-02-23T09:03:42;101449.78;;;8.07;100.00
59789;BME280;47353;51.614;5.530;2023-02-23T09:06:12;101446.63;;;8.15;100.00
59789;BME280;47353;51.614;5.530;2023-02-23T09:08:38;101452.16;;;8.26;100.00
59789;BME280;47353;51.614;5.530;2023-02-23T09:11:04;101461.53;;;8.42;100.00
59789;BME280;47353;51.614;5.530;2023-02-23T09:13:30;101461.81;;;8.57;100.00
59789;BME280;47353;51.614;5.530;2023-02-23T09:15:55;101471.84;;;8.63;100.00
59789;BME280;47353;51.614;5.530;2023-02-23T09:18:21;101472.28;;;8.72;100.00
59789;BME280;47353;51.614;5.530;2023-02-23T09:20:48;101474.03;;;8.78;100.00
59789;BME280;47353;51.614;5.530;2023-02-23T09:23:14;101483.50;;;8.82;100.00
59789;BME280;47353;51.614;5.530;2023-02-23T09:25:43;101485.31;;;8.76;100.00
59789;BME280;47353;51.614;5.530;2023-02-23T09:28:14;101482.66;;;8.81;100.00
59789;BME280;47353;51.614;5.530;2023-02-23T09:30:41;101479.47;;;8.73;100.00
59789;BME280;47353;51.614;5.530;2023-02-23T09:33:07;101487.84;;;8.78;100.00
59789;BME280;47353;51.614;5.530;2023-02-23T09:35:33;101485.25;;;8.88;100.00
59789;BME280;47353;51.614;5.530;2023-02-23T09:37:58;101482.91;;;8.96;100.00
59789;BME280;47353;51.614;5.530;2023-02-23T09:40:28;101477.56;;;8.90;100.00
59789;BME280;47353;51.614;5.530;2023-02-23T09:48:17;101493.78;;;8.70;100.00
59789;BME280;47353;51.614;5.530;2023-02-23T09:50:46;101502.72;;;8.60;100.00
59789;BME280;47353;51.614;5.530;2023-02-23T09:53:33;101503.09;;;8.52;100.00
59789;BME280;47353;51.614;5.530;2023-02-23T09:56:06;101508.50;;;8.47;100.00
59789;BME280;47353;51.614;5.530;2023-02-23T09:58:35;101512.72;;;8.50;100.00
59789;BME280;47353;51.614;5.530;2023-02-23T10:06:20;101503.59;;;8.49;100.00
59789;BME280;47353;51.614;5.530;2023-02-23T10:09:09;101509.53;;;8.58;100.00
59789;BME280;47353;51.614;5.530;2023-02-23T10:11:45;101506.28;;;8.61;100.00
59789;BME280;47353;51.614;5.530;2023-02-23T10:14:32;101504.97;;;8.63;100.00
59789;BME280;47353;51.614;5.530;2023-02-23T10:22:07;101503.88;;;8.81;100.00
59789;BME280;47353;51.614;5.530;2023-02-23T10:24:40;101504.25;;;8.84;100.00
59789;BME280;47353;51.614;5.530;2023-02-23T10:27:14;101509.94;;;8.94;100.00
59789;BME280;47353;51.614;5.530;2023-02-23T10:32:23;101508.69;;;9.18;100.00
59789;BME280;47353;51.614;5.530;2023-02-23T10:34:53;101510.44;;;9.24;100.00
59789;BME280;47353;51.614;5.530;2023-02-23T10:37:21;101518.19;;;9.44;100.00
59789;BME280;47353;51.614;5.530;2023-02-23T10:39:47;101528.00;;;9.51;100.00
59789;BME280;47353;51.614;5.530;2023-02-23T10:42:23;101522.78;;;9.55;100.00
59789;BME280;47353;51.614;5.530;2023-02-23T10:44:53;101523.31;;;9.52;100.00
59789;BME280;47353;51.614;5.530;2023-02-23T10:47:22;101524.16;;;9.52;100.00
59789;BME280;47353;51.614;5.530;2023-02-23T10:49:53;101523.38;;;9.57;100.00
59789;BME280;47353;51.614;5.530;2023-02-23T10:52:45;101520.03;;;9.71;100.00
59789;BME280;47353;51.614;5.530;2023-02-23T10:55:27;101516.28;;;9.82;100.00
59789;BME280;47353;51.614;5.530;2023-02-23T10:58:14;101529.41;;;9.92;100.00
59789;BME280;47353;51.614;5.530;2023-02-23T11:01:15;101530.09;;;9.99;100.00
59789;BME280;47353;51.614;5.530;2023-02-23T11:03:44;101532.94;;;9.87;100.00
59789;BME280;47353;51.614;5.530;2023-02-23T11:08:51;101539.41;;;9.76;100.00
59789;BME280;47353;51.614;5.530;2023-02-23T11:11:19;101540.13;;;9.67;100.00
59789;BME280;47353;51.614;5.530;2023-02-23T11:13:50;101530.78;;;9.51;100.00
59789;BME280;47353;51.614;5.530;2023-02-23T11:16:19;101527.50;;;9.54;100.00
59789;BME280;47353;51.614;5.530;2023-02-23T11:19:01;101525.13;;;9.63;100.00
59789;BME280;47353;51.614;5.530;2023-02-23T11:21:36;101535.09;;;9.64;100.00
59789;BME280;47353;51.614;5.530;2023-02-23T11:24:25;101534.28;;;9.63;100.00
59789;BME280;47353;51.614;5.530;2023-02-23T11:26:53;101538.59;;;9.76;100.00
59789;BME280;47353;51.614;5.530;2023-02-23T11:29:35;101524.31;;;9.84;100.00
59789;BME280;47353;51.614;5.530;2023-02-23T11:32:12;101517.78;;;9.90;100.00
59789;BME280;47353;51.614;5.530;2023-02-23T11:34:40;101519.13;;;9.87;100.00
59789;BME280;47353;51.614;5.530;2023-02-23T11:42:21;101524.72;;;9.92;100.00
59789;BME280;47353;51.614;5.530;2023-02-23T11:45:06;101521.00;;;10.03;100.00
59789;BME280;47353;51.614;5.530;2023-02-23T11:47:39;101513.66;;;9.92;100.00
59789;BME280;47353;51.614;5.530;2023-02-23T11:50:06;101516.88;;;10.06;100.00
59789;BME280;47353;51.614;5.530;2023-02-23T11:52:33;101523.16;;;10.18;100.00
59789;BME280;47353;51.614;5.530;2023-02-23T11:55:15;101519.81;;;10.38;100.00
59789;BME280;47353;51.614;5.530;2023-02-23T11:57:42;101515.94;;;10.39;100.00
59789;BME280;47353;51.614;5.530;2023-02-23T12:00:20;101533.81;;;10.53;100.00
59789;BME280;47353;51.614;5.530;2023-02-23T12:02:57;101530.78;;;10.54;100.00
59789;BME280;47353;51.614;5.530;2023-02-23T12:05:31;101532.09;;;10.47;100.00
59789;BME280;47353;51.614;5.530;2023-02-23T12:08:13;101521.28;;;10.45;98.90
59789;BME280;47353;51.614;5.530;2023-02-23T12:10:50;101516.81;;;10.44;98.32
59789;BME280;47353;51.614;5.530;2023-02-23T12:13:25;101516.81;;;10.44;98.04
59789;BME280;47353;51.614;5.530;2023-02-23T12:18:56;101513.50;;;10.42;96.27
59789;BME280;47353;51.614;5.530;2023-02-23T12:21:30;101511.13;;;10.29;97.78
59789;BME280;47353;51.614;5.530;2023-02-23T12:24:09;101503.00;;;10.23;97.68
59789;BME280;47353;51.614;5.530;2023-02-23T12:32:27;101501.09;;;10.23;97.97
59789;BME280;47353;51.614;5.530;2023-02-23T12:35:01;101496.47;;;10.29;97.82
59789;BME280;47353;51.614;5.530;2023-02-23T12:37:37;101507.22;;;10.25;97.93
59789;BME280;47353;51.614;5.530;2023-02-23T12:45:27;101507.06;;;10.37;96.59
59789;BME280;47353;51.614;5.530;2023-02-23T12:50:51;101513.88;;;10.29;95.85
59789;BME280;47353;51.614;5.530;2023-02-23T12:53:22;101523.53;;;10.27;95.91
59789;BME280;47353;51.614;5.530;2023-02-23T13:01:22;101507.00;;;10.32;95.98
59789;BME280;47353;51.614;5.530;2023-02-23T13:06:57;101505.00;;;10.49;94.86
59789;BME280;47353;51.614;5.530;2023-02-23T13:14:40;101507.28;;;10.30;92.86
59789;BME280;47353;51.614;5.530;2023-02-23T13:22:41;101507.28;;;10.08;92.25
59789;BME280;47353;51.614;5.530;2023-02-23T13:25:19;101509.94;;;10.03;90.24
59789;BME280;47353;51.614;5.530;2023-02-23T13:27:51;101498.22;;;9.96;91.34
59789;BME280;47353;51.614;5.530;2023-02-23T13:30:20;101508.22;;;9.97;90.76
59789;BME280;47353;51.614;5.530;2023-02-23T13:32:46;101497.00;;;9.87;90.12
59789;BME280;47353;51.614;5.530;2023-02-23T13:35:15;101508.06;;;9.87;90.93
59789;BME280;47353;51.614;5.530;2023-02-23T13:40:35;101519.13;;;9.87;91.42
59789;BME280;47353;51.614;5.530;2023-02-23T13:43:10;101516.22;;;9.77;91.10
59789;BME280;47353;51.614;5.530;2023-02-23T13:49:33;101524.09;;;9.69;91.33
59789;BME280;47353;51.614;5.530;2023-02-23T13:52:12;101517.34;;;9.60;90.25
59789;BME280;47353;51.614;5.530;2023-02-23T13:54:54;101518.38;;;9.54;90.12
59789;BME280;47353;51.614;5.530;2023-02-23T13:57:23;101512.75;;;9.49;90.52
59789;BME280;47353;51.614;5.530;2023-02-23T13:59:51;101515.22;;;9.45;90.78
59789;BME280;47353;51.614;5.530;2023-02-23T14:02:24;101519.91;;;9.45;91.25
59789;BME280;47353;51.614;5.530;2023-02-23T14:08:02;101512.63;;;9.39;91.34
59789;BME280;47353;51.614;5.530;2023-02-23T14:10:42;101522.81;;;9.38;91.58
59789;BME280;47353;51.614;5.530;2023-02-23T14:18:04;101526.09;;;9.35;92.27
59789;BME280;47353;51.614;5.530;2023-02-23T14:23:48;101529.28;;;9.27;94.12
59789;BME280;47353;51.614;5.530;2023-02-23T14:31:55;101525.84;;;9.20;94.74
59789;BME280;47353;51.614;5.530;2023-02-23T14:34:21;101522.00;;;9.21;94.94
59789;BME280;47353;51.614;5.530;2023-02-23T14:36:47;101523.19;;;9.25;94.59
59789;BME280;47353;51.614;5.530;2023-02-23T14:39:22;101530.78;;;9.35;95.08
59789;BME280;47353;51.614;5.530;2023-02-23T14:41:57;101531.44;;;9.42;94.53
59789;BME280;47353;51.614;5.530;2023-02-23T14:44:35;101535.38;;;9.46;94.81
59789;BME280;47353;51.614;5.530;2023-02-23T14:47:16;101532.69;;;9.51;94.65
59789;BME280;47353;51.614;5.530;2023-02-23T14:49:45;101538.13;;;9.46;94.20
59789;BME280;47353;51.614;5.530;2023-02-23T14:54:39;101529.09;;;9.34;94.51
59789;BME280;47353;51.614;5.530;2023-02-23T14:57:24;101526.09;;;9.35;94.60
59789;BME280;47353;51.614;5.530;2023-02-23T14:59:59;101532.53;;;9.24;94.19
59789;BME280;47353;51.614;5.530;2023-02-23T15:02:27;101528.28;;;9.17;94.29
59789;BME280;47353;51.614;5.530;2023-02-23T15:04:53;101534.56;;;9.12;94.68
59789;BME280;47353;51.614;5.530;2023-02-23T15:09:52;101541.69;;;9.08;95.93
59789;BME280;47353;51.614;5.530;2023-02-23T15:12:21;101533.28;;;9.03;95.28
59789;BME280;47353;51.614;5.530;2023-02-23T15:14:52;101533.63;;;9.07;95.81
59789;BME280;47353;51.614;5.530;2023-02-23T15:17:22;101517.31;;;9.05;95.63
59789;BME280;47353;51.614;5.530;2023-02-23T15:19:58;101525.66;;;9.10;95.29